sensor_id;sensor_type;location;lat;lon;timestamp;temperature;humidity
52709;DHT22;38606;52.986;6.980;2022-11-15T00:00:32;8.30;99.90
52709;DHT22;38606;52.986;6.980;2022-11-15T00:02:58;8.20;99.90
52709;DHT22;38606;52.986;6.980;2022-11-15T00:05:24;8.30;99.90
52709;DHT22;38606;52.986;6.980;2022-11-15T00:07:50;8.70;99.90
52709;DHT22;38606;52.986;6.980;2022-11-15T00:10:16;8.00;99.90
52709;DHT22;38606;52.986;6.980;2022-11-15T00:12:41;7.80;99.90
52709;DHT22;38606;52.986;6.980;2022-11-15T00:15:07;7.90;99.90
52709;DHT22;38606;52.986;6.980;2022-11-15T00:17:33;7.80;99.90
52709;DHT22;38606;52.986;6.980;2022-11-15T00:19:59;7.50;99.90
52709;DHT22;38606;52.986;6.980;2022-11-15T00:22:24;7.70;99.90
52709;DHT22;38606;52.986;6.980;2022-11-15T00:24:50;8.20;99.90
52709;DHT22;38606;52.986;6.980;2022-11-15T00:27:16;8.60;99.90
52709;DHT22;38606;52.986;6.980;2022-11-15T00:29:41;7.50;99.90
52709;DHT22;38606;52.986;6.980;2022-11-15T00:32:12;7.60;99.90
52709;DHT22;38606;52.986;6.980;2022-11-15T00:34:37;7.70;99.90
52709;DHT22;38606;52.986;6.980;2022-11-15T00:37:03;7.70;99.90
52709;DHT22;38606;52.986;6.980;2022-11-15T00:39:28;7.80;99.90
52709;DHT22;38606;52.986;6.980;2022-11-15T00:41:54;7.60;99.90
52709;DHT22;38606;52.986;6.980;2022-11-15T00:44:20;8.30;99.90
52709;DHT22;38606;52.986;6.980;2022-11-15T00:46:45;7.60;99.90
52709;DHT22;38606;52.986;6.980;2022-11-15T00:49:11;8.00;99.90
52709;DHT22;38606;52.986;6.980;2022-11-15T00:51:37;8.20;99.90
52709;DHT22;38606;52.986;6.980;2022-11-15T00:54:03;7.60;99.90
52709;DHT22;38606;52.986;6.980;2022-11-15T00:56:28;7.60;99.90
52709;DHT22;38606;52.986;6.980;2022-11-15T00:58:54;8.70;99.90
52709;DHT22;38606;52.986;6.980;2022-11-15T01:01:21;9.00;99.90
52709;DHT22;38606;52.986;6.980;2022-11-15T01:03:46;8.00;99.90
52709;DHT22;38606;52.986;6.980;2022-11-15T01:06:12;8.90;99.90
52709;DHT22;38606;52.986;6.980;2022-11-15T01:08:39;8.50;99.90
52709;DHT22;38606;52.986;6.980;2022-11-15T01:11:08;8.80;99.90
52709;DHT22;38606;52.986;6.980;2022-11-15T01:13:35;8.20;99.90
52709;DHT22;38606;52.986;6.980;2022-11-15T01:16:14;8.70;99.90
52709;DHT22;38606;52.986;6.980;2022-11-15T01:18:40;8.90;99.90
52709;DHT22;38606;52.986;6.980;2022-11-15T01:21:08;7.90;99.90
52709;DHT22;38606;52.986;6.980;2022-11-15T01:23:34;8.70;99.90
52709;DHT22;38606;52.986;6.980;2022-11-15T01:26:01;9.10;99.90
52709;DHT22;38606;52.986;6.980;2022-11-15T01:28:36;8.10;99.90
52709;DHT22;38606;52.986;6.980;2022-11-15T01:31:04;8.00;99.90
52709;DHT22;38606;52.986;6.980;2022-11-15T01:33:33;8.20;99.90
52709;DHT22;38606;52.986;6.980;2022-11-15T01:36:04;8.00;99.90
52709;DHT22;38606;52.986;6.980;2022-11-15T01:38:30;8.10;99.90
52709;DHT22;38606;52.986;6.980;2022-11-15T01:40:56;9.20;99.90
52709;DHT22;38606;52.986;6.980;2022-11-15T01:43:30;8.20;99.90
52709;DHT22;38606;52.986;6.980;2022-11-15T01:46:32;7.80;99.90
52709;DHT22;38606;52.986;6.980;2022-11-15T01:49:02;8.20;99.90
52709;DHT22;38606;52.986;6.980;2022-11-15T01:51:32;7.90;99.90
52709;DHT22;38606;52.986;6.980;2022-11-15T01:54:03;9.20;99.90
52709;DHT22;38606;52.986;6.980;2022-11-15T01:56:32;8.30;99.90
52709;DHT22;38606;52.986;6.980;2022-11-15T01:59:03;8.30;99.90
52709;DHT22;38606;52.986;6.980;2022-11-15T02:01:30;8.20;99.90
52709;DHT22;38606;52.986;6.980;2022-11-15T02:06:35;8.10;99.90
52709;DHT22;38606;52.986;6.980;2022-11-15T02:09:02;8.10;99.90
52709;DHT22;38606;52.986;6.980;2022-11-15T02:11:28;8.40;99.90
52709;DHT22;38606;52.986;6.980;2022-11-15T02:13:55;8.10;99.90
52709;DHT22;38606;52.986;6.980;2022-11-15T02:19:13;8.30;99.90
52709;DHT22;38606;52.986;6.980;2022-11-15T02:21:55;8.30;99.90
52709;DHT22;38606;52.986;6.980;2022-11-15T02:24:48;8.40;99.90
52709;DHT22;38606;52.986;6.980;2022-11-15T02:36:18;8.30;99.90
52709;DHT22;38606;52.986;6.980;2022-11-15T02:38:59;8.20;99.90
52709;DHT22;38606;52.986;6.980;2022-11-15T02:41:54;8.50;99.90
52709;DHT22;38606;52.986;6.980;2022-11-15T02:44:30;8.30;99.90
52709;DHT22;38606;52.986;6.980;2022-11-15T02:47:00;8.20;99.90
52709;DHT22;38606;52.986;6.980;2022-11-15T02:49:46;8.10;99.90
52709;DHT22;38606;52.986;6.980;2022-11-15T02:52:30;9.70;99.90
52709;DHT22;38606;52.986;6.980;2022-11-15T02:54:58;8.30;99.90
52709;DHT22;38606;52.986;6.980;2022-11-15T02:57:48;8.30;99.90
52709;DHT22;38606;52.986;6.980;2022-11-15T03:00:20;8.40;99.90
52709;DHT22;38606;52.986;6.980;2022-11-15T03:05:34;6.30;99.90
52709;DHT22;38606;52.986;6.980;2022-11-15T03:08:22;8.50;99.90
52709;DHT22;38606;52.986;6.980;2022-11-15T03:13:27;8.70;99.90
52709;DHT22;38606;52.986;6.980;2022-11-15T03:16:15;9.00;99.90
52709;DHT22;38606;52.986;6.980;2022-11-15T03:18:47;8.40;99.90
52709;DHT22;38606;52.986;6.980;2022-11-15T03:21:16;8.70;99.90
52709;DHT22;38606;52.986;6.980;2022-11-15T03:23:44;9.00;99.90
52709;DHT22;38606;52.986;6.980;2022-11-15T03:26:12;8.40;99.90
52709;DHT22;38606;52.986;6.980;2022-11-15T03:28:43;8.50;99.90
52709;DHT22;38606;52.986;6.980;2022-11-15T03:31:12;8.40;99.90
52709;DHT22;38606;52.986;6.980;2022-11-15T03:33:58;8.60;99.90
52709;DHT22;38606;52.986;6.980;2022-11-15T03:36:26;10.60;99.90
52709;DHT22;38606;52.986;6.980;2022-11-15T03:38:57;9.70;99.90
52709;DHT22;38606;52.986;6.980;2022-11-15T03:41:36;8.50;99.90
52709;DHT22;38606;52.986;6.980;2022-11-15T03:44:20;8.70;99.90
52709;DHT22;38606;52.986;6.980;2022-11-15T03:47:06;8.40;99.90
52709;DHT22;38606;52.986;6.980;2022-11-15T03:49:35;8.50;99.90
52709;DHT22;38606;52.986;6.980;2022-11-15T03:52:02;9.60;99.90
52709;DHT22;38606;52.986;6.980;2022-11-15T03:54:29;8.40;99.90
52709;DHT22;38606;52.986;6.980;2022-11-15T03:56:55;8.50;99.90
52709;DHT22;38606;52.986;6.980;2022-11-15T03:59:20;8.70;99.90
52709;DHT22;38606;52.986;6.980;2022-11-15T04:01:46;8.90;99.90
52709;DHT22;38606;52.986;6.980;2022-11-15T04:04:12;9.40;99.90
52709;DHT22;38606;52.986;6.980;2022-11-15T04:06:38;8.50;99.90
52709;DHT22;38606;52.986;6.980;2022-11-15T04:09:04;9.50;99.90
52709;DHT22;38606;52.986;6.980;2022-11-15T04:11:29;8.50;99.90
52709;DHT22;38606;52.986;6.980;2022-11-15T04:13:55;10.10;99.90
52709;DHT22;38606;52.986;6.980;2022-11-15T04:16:21;8.50;99.90
52709;DHT22;38606;52.986;6.980;2022-11-15T04:18:46;8.60;99.90
52709;DHT22;38606;52.986;6.980;2022-11-15T04:21:32;8.50;99.90
52709;DHT22;38606;52.986;6.980;2022-11-15T04:24:16;9.30;99.90
52709;DHT22;38606;52.986;6.980;2022-11-15T04:26:42;8.70;99.90
52709;DHT22;38606;52.986;6.980;2022-11-15T04:29:07;8.80;99.90
52709;DHT22;38606;52.986;6.980;2022-11-15T04:31:51;8.70;99.90
52709;DHT22;38606;52.986;6.980;2022-11-15T04:34:17;8.50;99.90
52709;DHT22;38606;52.986;6.980;2022-11-15T04:36:43;10.00;99.90
52709;DHT22;38606;52.986;6.980;2022-11-15T04:39:27;8.50;99.90
52709;DHT22;38606;52.986;6.980;2022-11-15T04:41:52;8.70;99.90
52709;DHT22;38606;52.986;6.980;2022-11-15T04:44:18;8.60;99.90
52709;DHT22;38606;52.986;6.980;2022-11-15T04:46:44;8.90;99.90
52709;DHT22;38606;52.986;6.980;2022-11-15T04:49:09;8.90;99.90
52709;DHT22;38606;52.986;6.980;2022-11-15T04:51:35;9.80;99.90
52709;DHT22;38606;52.986;6.980;2022-11-15T04:54:01;10.20;99.90
52709;DHT22;38606;52.986;6.980;2022-11-15T04:56:26;8.60;99.90
52709;DHT22;38606;52.986;6.980;2022-11-15T04:58:52;9.40;99.90
52709;DHT22;38606;52.986;6.980;2022-11-15T05:01:18;8.80;99.90
52709;DHT22;38606;52.986;6.980;2022-11-15T05:03:44;9.90;99.90
52709;DHT22;38606;52.986;6.980;2022-11-15T05:06:29;9.00;99.90
52709;DHT22;38606;52.986;6.980;2022-11-15T05:08:55;8.80;99.90
52709;DHT22;38606;52.986;6.980;2022-11-15T05:11:21;8.70;99.90
52709;DHT22;38606;52.986;6.980;2022-11-15T05:13:47;10.30;99.90
52709;DHT22;38606;52.986;6.980;2022-11-15T05:16:13;10.20;99.90
52709;DHT22;38606;52.986;6.980;2022-11-15T05:18:39;8.90;99.90
52709;DHT22;38606;52.986;6.980;2022-11-15T05:21:11;10.10;99.90
52709;DHT22;38606;52.986;6.980;2022-11-15T05:23:37;9.50;99.90
52709;DHT22;38606;52.986;6.980;2022-11-15T05:26:05;9.00;99.90
52709;DHT22;38606;52.986;6.980;2022-11-15T05:28:32;9.00;99.90
52709;DHT22;38606;52.986;6.980;2022-11-15T05:31:07;9.60;99.90
52709;DHT22;38606;52.986;6.980;2022-11-15T05:33:34;9.20;99.90
52709;DHT22;38606;52.986;6.980;2022-11-15T05:36:07;9.00;99.90
52709;DHT22;38606;52.986;6.980;2022-11-15T05:38:35;9.20;99.90
52709;DHT22;38606;52.986;6.980;2022-11-15T05:41:01;9.20;99.90
52709;DHT22;38606;52.986;6.980;2022-11-15T05:43:29;9.20;99.90
52709;DHT22;38606;52.986;6.980;2022-11-15T05:45:57;9.10;99.90
52709;DHT22;38606;52.986;6.980;2022-11-15T05:48:24;8.90;99.90
52709;DHT22;38606;52.986;6.980;2022-11-15T05:50:49;9.30;99.90
52709;DHT22;38606;52.986;6.980;2022-11-15T05:53:18;9.40;99.90
52709;DHT22;38606;52.986;6.980;2022-11-15T05:55:45;9.30;99.90
52709;DHT22;38606;52.986;6.980;2022-11-15T05:58:10;9.80;99.90
52709;DHT22;38606;52.986;6.980;2022-11-15T06:00:36;9.30;99.90
52709;DHT22;38606;52.986;6.980;2022-11-15T06:03:02;9.40;99.90
52709;DHT22;38606;52.986;6.980;2022-11-15T06:05:28;9.40;99.90
52709;DHT22;38606;52.986;6.980;2022-11-15T06:07:57;9.60;99.90
52709;DHT22;38606;52.986;6.980;2022-11-15T06:10:24;9.50;99.90
52709;DHT22;38606;52.986;6.980;2022-11-15T06:13:00;9.40;99.90
52709;DHT22;38606;52.986;6.980;2022-11-15T06:15:26;9.50;99.90
52709;DHT22;38606;52.986;6.980;2022-11-15T06:17:55;9.90;99.90
52709;DHT22;38606;52.986;6.980;2022-11-15T06:20:26;9.60;99.90
52709;DHT22;38606;52.986;6.980;2022-11-15T06:22:59;10.30;99.90
52709;DHT22;38606;52.986;6.980;2022-11-15T06:25:27;9.50;99.90
52709;DHT22;38606;52.986;6.980;2022-11-15T06:27:54;9.50;99.90
52709;DHT22;38606;52.986;6.980;2022-11-15T06:30:20;9.50;99.90
52709;DHT22;38606;52.986;6.980;2022-11-15T06:32:46;10.80;99.90
52709;DHT22;38606;52.986;6.980;2022-11-15T06:35:13;9.60;99.90
52709;DHT22;38606;52.986;6.980;2022-11-15T06:37:39;9.60;99.90
52709;DHT22;38606;52.986;6.980;2022-11-15T06:40:06;9.60;99.90
52709;DHT22;38606;52.986;6.980;2022-11-15T06:42:32;9.70;99.90
52709;DHT22;38606;52.986;6.980;2022-11-15T06:44:57;9.60;99.90
52709;DHT22;38606;52.986;6.980;2022-11-15T06:47:23;10.90;99.90
52709;DHT22;38606;52.986;6.980;2022-11-15T06:49:49;9.60;99.90
52709;DHT22;38606;52.986;6.980;2022-11-15T06:52:14;9.90;99.90
52709;DHT22;38606;52.986;6.980;2022-11-15T06:54:40;9.60;99.90
52709;DHT22;38606;52.986;6.980;2022-11-15T06:57:06;9.60;99.90
52709;DHT22;38606;52.986;6.980;2022-11-15T06:59:31;9.80;99.90
52709;DHT22;38606;52.986;6.980;2022-11-15T07:01:57;11.00;99.90
52709;DHT22;38606;52.986;6.980;2022-11-15T07:04:23;9.80;99.90
52709;DHT22;38606;52.986;6.980;2022-11-15T07:06:49;11.30;99.90
52709;DHT22;38606;52.986;6.980;2022-11-15T07:09:14;10.70;99.90
52709;DHT22;38606;52.986;6.980;2022-11-15T07:11:40;9.90;99.90
52709;DHT22;38606;52.986;6.980;2022-11-15T07:14:06;10.00;99.90
52709;DHT22;38606;52.986;6.980;2022-11-15T07:16:31;11.60;99.90
52709;DHT22;38606;52.986;6.980;2022-11-15T07:18:57;10.10;99.90
52709;DHT22;38606;52.986;6.980;2022-11-15T07:21:23;9.90;99.90
52709;DHT22;38606;52.986;6.980;2022-11-15T07:23:48;10.40;99.90
52709;DHT22;38606;52.986;6.980;2022-11-15T07:26:14;9.90;99.90
52709;DHT22;38606;52.986;6.980;2022-11-15T07:28:40;10.30;99.90
52709;DHT22;38606;52.986;6.980;2022-11-15T07:31:07;10.30;99.90
52709;DHT22;38606;52.986;6.980;2022-11-15T07:33:34;10.30;99.90
52709;DHT22;38606;52.986;6.980;2022-11-15T07:36:00;10.20;99.90
52709;DHT22;38606;52.986;6.980;2022-11-15T07:38:30;10.20;99.90
52709;DHT22;38606;52.986;6.980;2022-11-15T07:41:01;10.50;99.90
52709;DHT22;38606;52.986;6.980;2022-11-15T07:43:27;10.30;99.90
52709;DHT22;38606;52.986;6.980;2022-11-15T07:45:54;10.30;99.90
52709;DHT22;38606;52.986;6.980;2022-11-15T07:48:19;10.30;99.90
52709;DHT22;38606;52.986;6.980;2022-11-15T07:50:45;10.20;99.90
52709;DHT22;38606;52.986;6.980;2022-11-15T07:53:11;11.00;99.90
52709;DHT22;38606;52.986;6.980;2022-11-15T07:55:39;11.30;99.90
52709;DHT22;38606;52.986;6.980;2022-11-15T07:58:06;10.50;99.90
52709;DHT22;38606;52.986;6.980;2022-11-15T08:00:33;10.50;99.90
52709;DHT22;38606;52.986;6.980;2022-11-15T08:03:07;10.60;99.90
52709;DHT22;38606;52.986;6.980;2022-11-15T08:05:33;10.40;99.90
52709;DHT22;38606;52.986;6.980;2022-11-15T08:07:59;11.10;99.90
52709;DHT22;38606;52.986;6.980;2022-11-15T08:10:28;10.90;99.90
52709;DHT22;38606;52.986;6.980;2022-11-15T08:13:01;10.60;99.90
52709;DHT22;38606;52.986;6.980;2022-11-15T08:15:28;10.60;99.90
52709;DHT22;38606;52.986;6.980;2022-11-15T08:17:58;10.80;99.90
52709;DHT22;38606;52.986;6.980;2022-11-15T08:20:25;10.70;99.90
52709;DHT22;38606;52.986;6.980;2022-11-15T08:22:51;11.00;99.90
52709;DHT22;38606;52.986;6.980;2022-11-15T08:25:17;10.90;99.90
52709;DHT22;38606;52.986;6.980;2022-11-15T08:27:43;10.80;99.90
52709;DHT22;38606;52.986;6.980;2022-11-15T08:30:09;10.60;99.90
52709;DHT22;38606;52.986;6.980;2022-11-15T08:32:36;10.70;99.90
52709;DHT22;38606;52.986;6.980;2022-11-15T08:35:02;10.70;99.90
52709;DHT22;38606;52.986;6.980;2022-11-15T08:37:28;10.80;99.90
52709;DHT22;38606;52.986;6.980;2022-11-15T08:39:54;11.00;99.90
52709;DHT22;38606;52.986;6.980;2022-11-15T08:42:19;11.00;99.90
52709;DHT22;38606;52.986;6.980;2022-11-15T08:44:45;11.20;99.90
52709;DHT22;38606;52.986;6.980;2022-11-15T08:47:11;11.20;99.90
52709;DHT22;38606;52.986;6.980;2022-11-15T08:49:37;11.70;99.90
52709;DHT22;38606;52.986;6.980;2022-11-15T08:52:03;11.10;99.90
52709;DHT22;38606;52.986;6.980;2022-11-15T08:54:29;11.10;99.90
52709;DHT22;38606;52.986;6.980;2022-11-15T08:56:54;11.40;99.90
52709;DHT22;38606;52.986;6.980;2022-11-15T08:59:20;11.50;99.90
52709;DHT22;38606;52.986;6.980;2022-11-15T09:01:46;11.30;99.90
52709;DHT22;38606;52.986;6.980;2022-11-15T09:04:11;11.20;99.90
52709;DHT22;38606;52.986;6.980;2022-11-15T09:06:37;11.40;99.90
52709;DHT22;38606;52.986;6.980;2022-11-15T09:09:03;11.00;99.90
52709;DHT22;38606;52.986;6.980;2022-11-15T09:11:29;11.20;99.90
52709;DHT22;38606;52.986;6.980;2022-11-15T09:13:54;11.40;99.90
52709;DHT22;38606;52.986;6.980;2022-11-15T09:16:20;11.40;99.90
52709;DHT22;38606;52.986;6.980;2022-11-15T09:18:46;11.30;99.90
52709;DHT22;38606;52.986;6.980;2022-11-15T09:21:11;11.30;99.90
52709;DHT22;38606;52.986;6.980;2022-11-15T09:23:37;11.50;99.90
52709;DHT22;38606;52.986;6.980;2022-11-15T09:26:04;11.20;99.90
52709;DHT22;38606;52.986;6.980;2022-11-15T09:28:31;11.70;99.90
52709;DHT22;38606;52.986;6.980;2022-11-15T09:30:59;11.30;99.90
52709;DHT22;38606;52.986;6.980;2022-11-15T09:33:26;11.10;99.90
52709;DHT22;38606;52.986;6.980;2022-11-15T09:35:52;11.50;99.90
52709;DHT22;38606;52.986;6.980;2022-11-15T09:38:18;11.40;99.90
52709;DHT22;38606;52.986;6.980;2022-11-15T09:40:43;11.70;99.90
52709;DHT22;38606;52.986;6.980;2022-11-15T09:49:00;11.40;99.90
52709;DHT22;38606;52.986;6.980;2022-11-15T09:51:41;11.50;99.90
52709;DHT22;38606;52.986;6.980;2022-11-15T09:56:47;11.50;99.90
52709;DHT22;38606;52.986;6.980;2022-11-15T10:04:39;12.20;99.90
52709;DHT22;38606;52.986;6.980;2022-11-15T10:07:28;12.20;99.90
52709;DHT22;38606;52.986;6.980;2022-11-15T10:10:11;11.70;99.90
52709;DHT22;38606;52.986;6.980;2022-11-15T10:12:42;12.00;99.90
52709;DHT22;38606;52.986;6.980;2022-11-15T10:15:14;11.70;99.90
52709;DHT22;38606;52.986;6.980;2022-11-15T10:20:19;11.80;99.90
52709;DHT22;38606;52.986;6.980;2022-11-15T10:22:49;11.80;99.90
52709;DHT22;38606;52.986;6.980;2022-11-15T10:25:30;12.00;99.90
52709;DHT22;38606;52.986;6.980;2022-11-15T10:28:22;11.80;99.90
52709;DHT22;38606;52.986;6.980;2022-11-15T10:30:53;11.80;99.90
52709;DHT22;38606;52.986;6.980;2022-11-15T10:47:05;11.80;99.90
52709;DHT22;38606;52.986;6.980;2022-11-15T10:49:32;11.80;99.90
52709;DHT22;38606;52.986;6.980;2022-11-15T10:55:04;13.20;99.90
52709;DHT22;38606;52.986;6.980;2022-11-15T10:57:38;12.00;99.90
52709;DHT22;38606;52.986;6.980;2022-11-15T11:00:13;11.90;99.90
52709;DHT22;38606;52.986;6.980;2022-11-15T11:03:30;11.90;99.90
52709;DHT22;38606;52.986;6.980;2022-11-15T11:06:14;11.90;99.90
52709;DHT22;38606;52.986;6.980;2022-11-15T11:08:40;11.80;99.90
52709;DHT22;38606;52.986;6.980;2022-11-15T11:11:18;11.90;99.90
52709;DHT22;38606;52.986;6.980;2022-11-15T11:13:43;13.40;99.90
52709;DHT22;38606;52.986;6.980;2022-11-15T11:21:49;12.20;99.90
52709;DHT22;38606;52.986;6.980;2022-11-15T11:24:25;12.90;99.90
52709;DHT22;38606;52.986;6.980;2022-11-15T11:34:58;12.30;99.90
52709;DHT22;38606;52.986;6.980;2022-11-15T11:40:43;13.40;99.90
52709;DHT22;38606;52.986;6.980;2022-11-15T11:49:01;12.20;99.90
52709;DHT22;38606;52.986;6.980;2022-11-15T11:51:27;14.30;99.90
52709;DHT22;38606;52.986;6.980;2022-11-15T11:54:22;12.60;99.90
52709;DHT22;38606;52.986;6.980;2022-11-15T11:56:45;12.60;99.90
52709;DHT22;38606;52.986;6.980;2022-11-15T11:59:47;12.60;99.90
52709;DHT22;38606;52.986;6.980;2022-11-15T12:02:37;12.60;99.90
52709;DHT22;38606;52.986;6.980;2022-11-15T12:05:43;12.60;99.90
52709;DHT22;38606;52.986;6.980;2022-11-15T12:08:43;12.50;99.90
52709;DHT22;38606;52.986;6.980;2022-11-15T12:14:05;12.50;99.90
52709;DHT22;38606;52.986;6.980;2022-11-15T12:16:33;12.50;99.90
52709;DHT22;38606;52.986;6.980;2022-11-15T12:19:01;12.60;99.90
52709;DHT22;38606;52.986;6.980;2022-11-15T12:24:37;12.70;99.90
52709;DHT22;38606;52.986;6.980;2022-11-15T12:27:31;12.60;99.90
52709;DHT22;38606;52.986;6.980;2022-11-15T12:30:07;12.50;99.90
52709;DHT22;38606;52.986;6.980;2022-11-15T12:32:37;12.60;99.90
52709;DHT22;38606;52.986;6.980;2022-11-15T12:35:27;12.80;99.90
52709;DHT22;38606;52.986;6.980;2022-11-15T12:37:55;12.80;99.90
52709;DHT22;38606;52.986;6.980;2022-11-15T12:40:34;12.50;99.90
52709;DHT22;38606;52.986;6.980;2022-11-15T12:45:42;12.70;99.90
52709;DHT22;38606;52.986;6.980;2022-11-15T12:50:55;12.30;99.90
52709;DHT22;38606;52.986;6.980;2022-11-15T12:58:50;12.40;99.90
52709;DHT22;38606;52.986;6.980;2022-11-15T13:12:07;12.20;99.90
52709;DHT22;38606;52.986;6.980;2022-11-15T13:27:47;12.20;99.90
52709;DHT22;38606;52.986;6.980;2022-11-15T13:30:18;12.40;99.90
52709;DHT22;38606;52.986;6.980;2022-11-15T13:32:44;12.40;99.90
52709;DHT22;38606;52.986;6.980;2022-11-15T13:35:20;12.80;99.90
52709;DHT22;38606;52.986;6.980;2022-11-15T13:37:45;12.40;99.90
52709;DHT22;38606;52.986;6.980;2022-11-15T13:40:27;12.10;99.90
52709;DHT22;38606;52.986;6.980;2022-11-15T13:42:56;12.80;99.90
52709;DHT22;38606;52.986;6.980;2022-11-15T13:45:22;12.30;99.90
52709;DHT22;38606;52.986;6.980;2022-11-15T13:47:57;12.30;99.90
52709;DHT22;38606;52.986;6.980;2022-11-15T13:50:33;12.20;99.90
52709;DHT22;38606;52.986;6.980;2022-11-15T13:53:03;12.30;99.90
52709;DHT22;38606;52.986;6.980;2022-11-15T13:55:31;12.20;99.90
52709;DHT22;38606;52.986;6.980;2022-11-15T13:58:00;12.40;99.90
52709;DHT22;38606;52.986;6.980;2022-11-15T14:00:44;12.40;99.90
52709;DHT22;38606;52.986;6.980;2022-11-15T14:03:18;12.20;99.90
52709;DHT22;38606;52.986;6.980;2022-11-15T14:08:32;12.30;99.90
52709;DHT22;38606;52.986;6.980;2022-11-15T14:11:31;12.20;99.90
52709;DHT22;38606;52.986;6.980;2022-11-15T14:16:35;12.00;99.90
52709;DHT22;38606;52.986;6.980;2022-11-15T14:19:02;12.00;99.90
52709;DHT22;38606;52.986;6.980;2022-11-15T14:21:28;11.90;99.90
52709;DHT22;38606;52.986;6.980;2022-11-15T14:24:22;11.80;99.90
52709;DHT22;38606;52.986;6.980;2022-11-15T14:26:55;12.00;99.90
52709;DHT22;38606;52.986;6.980;2022-11-15T14:31:49;11.90;99.90
52709;DHT22;38606;52.986;6.980;2022-11-15T14:34:15;11.80;99.90
52709;DHT22;38606;52.986;6.980;2022-11-15T14:36:40;11.80;99.90
52709;DHT22;38606;52.986;6.980;2022-11-15T14:39:06;12.20;99.90
52709;DHT22;38606;52.986;6.980;2022-11-15T14:41:35;12.00;99.90
52709;DHT22;38606;52.986;6.980;2022-11-15T14:44:04;11.80;99.90
52709;DHT22;38606;52.986;6.980;2022-11-15T14:46:30;11.50;99.90
52709;DHT22;38606;52.986;6.980;2022-11-15T14:48:56;11.70;99.90
52709;DHT22;38606;52.986;6.980;2022-11-15T14:51:22;11.40;99.90
52709;DHT22;38606;52.986;6.980;2022-11-15T14:53:48;11.50;99.90
52709;DHT22;38606;52.986;6.980;2022-11-15T14:56:14;11.40;99.90
52709;DHT22;38606;52.986;6.980;2022-11-15T14:58:42;11.50;99.90
52709;DHT22;38606;52.986;6.980;2022-11-15T15:01:20;11.60;99.90
52709;DHT22;38606;52.986;6.980;2022-11-15T15:03:46;11.60;99.90
52709;DHT22;38606;52.986;6.980;2022-11-15T15:06:12;11.90;99.90
52709;DHT22;38606;52.986;6.980;2022-11-15T15:08:42;11.50;99.90
52709;DHT22;38606;52.986;6.980;2022-11-15T15:11:14;11.40;99.90
52709;DHT22;38606;52.986;6.980;2022-11-15T15:13:40;11.50;99.90
52709;DHT22;38606;52.986;6.980;2022-11-15T15:16:06;11.30;99.90
52709;DHT22;38606;52.986;6.980;2022-11-15T15:18:32;11.10;99.90
52709;DHT22;38606;52.986;6.980;2022-11-15T15:20:59;11.30;99.90
52709;DHT22;38606;52.986;6.980;2022-11-15T15:23:28;11.40;99.90
52709;DHT22;38606;52.986;6.980;2022-11-15T15:25:54;11.00;99.90
52709;DHT22;38606;52.986;6.980;2022-11-15T15:28:20;11.00;99.90
52709;DHT22;38606;52.986;6.980;2022-11-15T15:30:46;10.80;99.90
52709;DHT22;38606;52.986;6.980;2022-11-15T15:33:11;10.80;99.90
52709;DHT22;38606;52.986;6.980;2022-11-15T15:35:37;10.80;99.90
52709;DHT22;38606;52.986;6.980;2022-11-15T15:38:03;10.80;99.90
52709;DHT22;38606;52.986;6.980;2022-11-15T15:40:31;11.20;99.90
52709;DHT22;38606;52.986;6.980;2022-11-15T15:42:57;10.80;99.90
52709;DHT22;38606;52.986;6.980;2022-11-15T15:45:25;10.80;99.90
52709;DHT22;38606;52.986;6.980;2022-11-15T15:47:51;10.80;99.90
52709;DHT22;38606;52.986;6.980;2022-11-15T15:50:29;11.20;99.90
52709;DHT22;38606;52.986;6.980;2022-11-15T15:52:59;10.60;99.90
52709;DHT22;38606;52.986;6.980;2022-11-15T15:55:26;10.50;99.90
52709;DHT22;38606;52.986;6.980;2022-11-15T15:57:52;11.50;99.90
52709;DHT22;38606;52.986;6.980;2022-11-15T16:00:19;10.40;99.90
52709;DHT22;38606;52.986;6.980;2022-11-15T16:02:45;10.50;99.90
52709;DHT22;38606;52.986;6.980;2022-11-15T16:05:12;10.60;99.90
52709;DHT22;38606;52.986;6.980;2022-11-15T16:07:38;10.50;99.90
52709;DHT22;38606;52.986;6.980;2022-11-15T16:10:23;10.90;99.90
52709;DHT22;38606;52.986;6.980;2022-11-15T16:12:53;10.50;99.90
52709;DHT22;38606;52.986;6.980;2022-11-15T16:15:23;10.50;99.90
52709;DHT22;38606;52.986;6.980;2022-11-15T16:17:54;10.50;99.90
52709;DHT22;38606;52.986;6.980;2022-11-15T16:20:36;10.50;99.90
52709;DHT22;38606;52.986;6.980;2022-11-15T16:23:05;10.30;99.90
52709;DHT22;38606;52.986;6.980;2022-11-15T16:25:40;11.60;99.90
52709;DHT22;38606;52.986;6.980;2022-11-15T16:30:43;10.30;99.90
52709;DHT22;38606;52.986;6.980;2022-11-15T16:33:08;11.00;99.90
52709;DHT22;38606;52.986;6.980;2022-11-15T16:35:34;10.20;99.90
52709;DHT22;38606;52.986;6.980;2022-11-15T16:38:00;10.10;99.90
52709;DHT22;38606;52.986;6.980;2022-11-15T16:40:29;10.20;99.90
52709;DHT22;38606;52.986;6.980;2022-11-15T16:42:56;10.10;99.90
52709;DHT22;38606;52.986;6.980;2022-11-15T16:45:23;10.00;99.90
52709;DHT22;38606;52.986;6.980;2022-11-15T16:47:49;10.30;99.90
52709;DHT22;38606;52.986;6.980;2022-11-15T16:50:24;10.20;99.90
52709;DHT22;38606;52.986;6.980;2022-11-15T16:52:55;10.00;99.90
52709;DHT22;38606;52.986;6.980;2022-11-15T16:55:23;10.30;99.90
52709;DHT22;38606;52.986;6.980;2022-11-15T16:57:52;10.10;99.90
52709;DHT22;38606;52.986;6.980;2022-11-15T17:00:18;9.90;99.90
52709;DHT22;38606;52.986;6.980;2022-11-15T17:02:48;10.10;99.90
52709;DHT22;38606;52.986;6.980;2022-11-15T17:05:16;10.40;99.90
52709;DHT22;38606;52.986;6.980;2022-11-15T17:07:42;10.30;99.90
52709;DHT22;38606;52.986;6.980;2022-11-15T17:10:10;10.30;99.90
52709;DHT22;38606;52.986;6.980;2022-11-15T17:12:37;10.50;99.90
52709;DHT22;38606;52.986;6.980;2022-11-15T17:15:03;10.20;99.90
52709;DHT22;38606;52.986;6.980;2022-11-15T17:17:30;10.20;99.90
52709;DHT22;38606;52.986;6.980;2022-11-15T17:19:59;10.50;99.90
52709;DHT22;38606;52.986;6.980;2022-11-15T17:22:25;10.60;99.90
52709;DHT22;38606;52.986;6.980;2022-11-15T17:24:50;10.60;99.90
52709;DHT22;38606;52.986;6.980;2022-11-15T17:27:16;10.40;99.90
52709;DHT22;38606;52.986;6.980;2022-11-15T17:29:44;11.60;99.90
52709;DHT22;38606;52.986;6.980;2022-11-15T17:32:13;10.30;99.90
52709;DHT22;38606;52.986;6.980;2022-11-15T17:34:39;10.50;99.90
52709;DHT22;38606;52.986;6.980;2022-11-15T17:37:04;10.40;99.90
52709;DHT22;38606;52.986;6.980;2022-11-15T17:39:30;10.30;99.90
52709;DHT22;38606;52.986;6.980;2022-11-15T17:41:56;10.20;99.90
52709;DHT22;38606;52.986;6.980;2022-11-15T17:44:22;10.70;99.90
52709;DHT22;38606;52.986;6.980;2022-11-15T17:46:47;10.30;99.90
52709;DHT22;38606;52.986;6.980;2022-11-15T17:49:13;10.50;99.90
52709;DHT22;38606;52.986;6.980;2022-11-15T17:51:39;10.50;99.90
52709;DHT22;38606;52.986;6.980;2022-11-15T17:54:05;10.60;99.90
52709;DHT22;38606;52.986;6.980;2022-11-15T17:56:30;10.30;99.90
52709;DHT22;38606;52.986;6.980;2022-11-15T17:58:58;10.40;99.90